createdAt,value
2023-04-24T00:01:21.777Z,22.7
2023-04-24T00:07:15.538Z,22.7
2023-04-24T00:13:07.301Z,22.7
2023-04-24T00:18:58.496Z,22.6
2023-04-24T00:24:50.026Z,22.6
2023-04-24T00:30:40.929Z,22.6
2023-04-24T00:36:32.419Z,22.6
2023-04-24T00:42:24.046Z,22.6
2023-04-24T00:48:14.716Z,22.5
2023-04-24T00:54:05.657Z,22.4
2023-04-24T00:59:41.656Z,22.4
2023-04-24T01:05:34.889Z,22.4
2023-04-24T01:11:26.433Z,22.4
2023-04-24T01:17:18.196Z,22.4
2023-04-24T01:23:10.420Z,22.4
2023-04-24T01:29:01.622Z,22.4
2023-04-24T01:34:53.705Z,22.3
2023-04-24T01:40:30.031Z,22.3
2023-04-24T01:46:21.284Z,22.3
2023-04-24T01:52:13.648Z,22.3
2023-04-24T01:58:04.857Z,22.3
2023-04-24T02:03:58.224Z,22.3
2023-04-24T02:09:50.335Z,22.3
2023-04-24T02:15:41.677Z,22.3
2023-04-24T02:21:32.848Z,22.3
2023-04-24T02:27:08.529Z,22.3
2023-04-24T02:32:59.924Z,22.3
2023-04-24T02:38:51.135Z,22.3
2023-04-24T02:44:42.609Z,22.2
2023-04-24T02:50:34.703Z,22.2
2023-04-24T02:56:26.003Z,22.2
2023-04-24T03:02:18.158Z,22.2
2023-04-24T03:08:11.549Z,22.2
2023-04-24T03:14:02.656Z,22.1
2023-04-24T03:19:57.690Z,22.1
2023-04-24T03:25:49.631Z,22.1
2023-04-24T03:31:41.420Z,22.1
2023-04-24T03:37:33.403Z,22.1
2023-04-24T03:43:12.087Z,22.1
2023-04-24T03:49:03.695Z,22.1
2023-04-24T03:54:56.602Z,22.1
2023-04-24T04:00:48.106Z,22.1
2023-04-24T04:06:41.901Z,22.1
2023-04-24T04:12:33.381Z,22.1
2023-04-24T04:18:25.098Z,22.1
2023-04-24T04:24:16.219Z,22.1
2023-04-24T04:30:07.916Z,22
2023-04-24T04:35:59.756Z,22
2023-04-24T04:41:51.669Z,22
2023-04-24T04:47:43.297Z,21.9
2023-04-24T04:53:35.464Z,21.9
2023-04-24T04:59:27.419Z,21.9
2023-04-24T05:05:23.237Z,21.9
2023-04-24T05:11:21.597Z,21.9
2023-04-24T05:17:25.694Z,21.9
2023-04-24T05:23:17.032Z,21.9
2023-04-24T05:28:52.421Z,21.9
2023-04-24T05:34:29.446Z,21.9
2023-04-24T05:40:20.557Z,21.9
2023-04-24T05:46:12.259Z,21.8
2023-04-24T05:51:48.235Z,21.8
2023-04-24T05:57:39.868Z,21.8
2023-04-24T06:03:32.490Z,21.8
2023-04-24T06:09:26.527Z,21.8
2023-04-24T06:14:47.721Z,21.7
2023-04-24T06:20:40.234Z,21.7
2023-04-24T06:26:31.408Z,21.7
2023-04-24T06:32:08.178Z,21.7
2023-04-24T06:38:07.942Z,21.7
2023-04-24T06:43:44.281Z,20.8
2023-04-24T06:49:21.606Z,39.9
2023-04-24T06:55:12.950Z,37.9
2023-04-24T07:01:04.659Z,36.4
2023-04-24T07:07:00.225Z,35.8
2023-04-24T07:12:52.291Z,41.1
2023-04-24T07:18:29.581Z,37
2023-04-24T07:24:05.910Z,34.4
2023-04-24T07:29:44.279Z,42.8
2023-04-24T07:35:36.616Z,45.3
2023-04-24T07:41:28.341Z,43.4
2023-04-24T07:47:20.777Z,44.6
2023-04-24T07:53:26.481Z,45.9
2023-04-24T07:59:20.899Z,47
2023-04-24T08:05:16.995Z,48.1
2023-04-24T08:10:55.530Z,49.1
2023-04-24T08:16:46.937Z,50.1
2023-04-24T08:22:39.571Z,51.3
2023-04-24T08:28:33.093Z,52.1
2023-04-24T08:34:10.126Z,52.3
2023-04-24T08:39:55.527Z,52.9
2023-04-24T08:45:47.214Z,54.3
2023-04-24T08:51:55.504Z,55.3
2023-04-24T08:57:46.816Z,56.4
2023-04-24T09:03:23.969Z,57.4
2023-04-24T09:09:18.237Z,58.7
2023-04-24T09:15:09.483Z,58.8
2023-04-24T09:20:45.873Z,55.7
2023-04-24T09:26:37.677Z,53.4
2023-04-24T09:32:15.158Z,56.8
2023-04-24T09:37:50.776Z,59.3
2023-04-24T09:43:42.459Z,61.4
2023-04-24T09:49:45.275Z,61.3
2023-04-24T09:55:39.893Z,62.3
2023-04-24T10:01:31.977Z,62
2023-04-24T10:07:25.303Z,61.1
2023-04-24T10:13:17.400Z,61.4
2023-04-24T10:19:09.872Z,64.2
2023-04-24T10:25:01.779Z,61.3
2023-04-24T10:30:53.082Z,59.6
2023-04-24T10:36:45.434Z,64.2
2023-04-24T10:42:37.297Z,60
2023-04-24T10:48:29.388Z,64.3
2023-04-24T10:54:21.045Z,62.7
2023-04-24T11:00:13.370Z,62.6
2023-04-24T11:05:51.795Z,57.7
2023-04-24T11:11:45.413Z,51.8
2023-04-24T11:17:22.726Z,47
